Alps Wideshine — 9HA2472 — position and weather

sailwx.info

Track history (hours):
 
Tides and Currents Weather Stations Pressure Air Temp Water Temp Dewpoint Dewpoint Depression Visibility Wind Speed Wind Dir Waves Ship Positions

Alps Wideshine

Last reported at 2015-May-03 23:28 UTC. Time now 2015-May-26 05:47 UTC.
Position N 37°48' W 074°37'.
Warning: this ship's position is 22 days out of date.

Length 107 m; draft 6.6 m.

Type: Tanker. MMSI: 248694000.

Date/timePositionNaut miles runAvg speedWind from/ knotsBaromVisibWave heightAir tempDewpointWater temp
2015-May-03 23:28N 37°48' W 074°37'1011.2
2015-May-03 22:33N 37°58' W 074°38'1111.0
2015-May-03 21:33N 38°09' W 074°40'1111.2
2015-May-03 20:33N 38°21' W 074°41'1110.7
2015-May-03 19:33N 38°30' W 074°46'1111.4
2015-May-03 18:33N 38°39' W 074°55'1313.1
2015-May-03 17:34N 38°50' W 075°05'1312.7
2015-May-03 16:33N 39°02' W 075°10'1211.8
2015-May-03 15:33N 39°13' W 075°17'1010.3
2015-May-03 14:34N 39°21' W 075°26'10 9.5
2015-May-03 13:34N 39°28' W 075°34'9 9.3
2015-May-03 12:34N 39°37' W 075°35'1111.0
2015-May-03 11:34N 39°47' W 075°28'1010.0
2015-May-03 10:33N 39°51' W 075°16'0 0.1
2015-May-03 09:33N 39°51' W 075°16'0 0.0
2015-May-03 08:33N 39°51' W 075°16'0 0.0
2015-May-03 07:33N 39°51' W 075°16'0 0.0
2015-May-03 06:27N 39°51' W 075°16'0 0.0
2015-May-03 05:33N 39°51' W 075°16'0 0.0
2015-May-03 04:33N 39°51' W 075°16'0 0.0
2015-May-03 03:30N 39°51' W 075°16'0 0.0
2015-May-03 02:30N 39°51' W 075°16'0 0.0
2015-May-03 01:33N 39°51' W 075°16'0 0.0
2015-May-03 00:30N 39°51' W 075°16'0 0.0
2015-May-02 23:30N 39°51' W 075°16'0 0.0
2015-May-02 22:33N 39°51' W 075°16'0 0.0
2015-May-02 21:33N 39°51' W 075°16'0 0.0
2015-May-02 20:33N 39°51' W 075°16'0 0.0
2015-May-02 19:33N 39°51' W 075°16'0 0.0
2015-May-02 18:30N 39°51' W 075°16'0 0.0
2015-May-02 17:15N 39°51' W 075°16'0 0.0
2015-May-02 16:33N 39°51' W 075°16'0 0.0
2015-May-02 15:33N 39°51' W 075°16'0 0.0
2015-May-02 14:33N 39°51' W 075°16'0 0.0
2015-May-02 13:30N 39°51' W 075°16'0 0.1
2015-May-02 12:33N 39°51' W 075°16'6 5.9
2015-May-02 11:34N 39°49' W 075°23'1 1.5
2015-May-02 10:33N 39°48' W 075°25'0 0.0
2015-May-02 09:33N 39°48' W 075°25'0 0.0
2015-May-02 08:33N 39°48' W 075°25'0 0.0
2015-May-02 07:33N 39°48' W 075°25'0 0.0
2015-May-02 06:33N 39°48' W 075°25'0 0.1
2015-May-02 05:33N 39°48' W 075°25'0 0.1
2015-May-02 04:33N 39°48' W 075°25'0 0.0
2015-May-02 03:33N 39°48' W 075°25'0 0.0
2015-May-02 02:33N 39°48' W 075°25'0 0.0
2015-May-02 01:33N 39°48' W 075°25'0 0.0
2015-May-02 00:32N 39°48' W 075°25'0 0.1
2015-May-01 23:33N 39°48' W 075°25'0 0.1
2015-May-01 22:33N 39°48' W 075°25'0 0.0
2015-May-01 21:33N 39°48' W 075°25'0 0.0
2015-May-01 20:32N 39°48' W 075°25'0 0.0
2015-May-01 19:32N 39°48' W 075°25'0 0.0
2015-May-01 18:32N 39°48' W 075°25'0 0.0
2015-May-01 17:32N 39°48' W 075°25'0 0.1
2015-May-01 16:29N 39°48' W 075°25'0 0.0
2015-May-01 15:32N 39°48' W 075°25'0 0.0
2015-May-01 14:32N 39°48' W 075°25'0 0.0
2015-May-01 13:33N 39°48' W 075°25'0 0.1
2015-May-01 12:29N 39°48' W 075°25'1 0.9
2015-May-01 11:34N 39°48' W 075°26'1010.3
2015-May-01 10:34N 39°39' W 075°33'1010.5
2015-May-01 09:34N 39°29' W 075°34'1110.6
2015-May-01 08:34N 39°20' W 075°25'1110.6
2015-May-01 07:34N 39°12' W 075°17'1111.5
2015-May-01 06:34N 39°02' W 075°09'1111.3
2015-May-01 05:34N 38°52' W 075°04'9 8.7
2015-May-01 04:34N 38°45' W 074°57'15 7.2
2015-May-01 02:33N 38°36' W 074°43'2 1.3
2015-May-01 01:20N 38°37' W 074°43'2 1.2
2015-Apr-30 23:32N 38°39' W 074°43'1 1.1
2015-Apr-30 22:32N 38°40' W 074°42'1 1.2
2015-Apr-30 21:32N 38°41' W 074°41'1 1.2
2015-Apr-30 20:32N 38°41' W 074°40'2 1.1
2015-Apr-30 18:32N 38°42' W 074°37'3 0.7
2015-Apr-30 14:21N 38°41' W 074°34'23 3.9
2015-Apr-30 08:26N 38°59' W 074°16'2512.3
2015-Apr-30 06:24N 39°22' W 074°03'1212.1
2015-Apr-30 05:27N 39°32' W 073°57'1011.8
2015-Apr-30 04:33N 39°43' W 073°53'1212.0
2015-Apr-30 03:34N 39°54' W 073°51'1712.0
2015-Apr-30 02:09N 40°11' W 073°50'711.7
2015-Apr-30 01:33N 40°18' W 073°49'11 9.4
2015-Apr-30 00:21N 40°29' W 073°54'810.4
2015-Apr-29 23:33N 40°34' W 074°02'7 7.2
2015-Apr-29 22:33N 40°39' W 074°10'2 0.3
2015-Apr-29 17:10N 40°38' W 074°12'0 0.0
2015-Apr-29 15:28N 40°38' W 074°12'0 0.0
2015-Apr-29 14:04N 40°38' W 074°12'0 0.0
2015-Apr-29 13:28N 40°38' W 074°12'0 0.0
2015-Apr-29 12:10N 40°38' W 074°12'0 0.0
2015-Apr-29 10:28N 40°38' W 074°12'0 0.0
2015-Apr-28 21:25N 40°38' W 074°12'4 5.2
2015-Apr-28 20:33N 40°39' W 074°06'8 8.3
2015-Apr-28 19:33N 40°32' W 074°01'1010.3
2015-Apr-28 18:32N 40°27' W 073°49'6 0.8
2015-Apr-28 11:16N 40°28' W 073°41'62 9.2
2015-Apr-28 04:31N 39°28' W 073°19'  
Track history (hours):
 
Tides and Currents Weather Stations Pressure Air Temp Water Temp Dewpoint Dewpoint Depression Visibility Wind Speed Wind Dir Waves Ship Positions

Alps Wideshine

Last reported at 2015-May-03 23:28 UTC. Time now 2015-May-26 05:47 UTC.
Position N 37°48' W 074°37'.
Warning: this ship's position is 22 days out of date.

Length 107 m; draft 6.6 m.

Type: Tanker. MMSI: 248694000.

Date/timePositionNaut miles runAvg speedWind from/ knotsBaromVisibWave heightAir tempDewpointWater temp
2015-May-03 23:28N 37°48' W 074°37'1011.2
2015-May-03 22:33N 37°58' W 074°38'1111.0
2015-May-03 21:33N 38°09' W 074°40'1111.2
2015-May-03 20:33N 38°21' W 074°41'1110.7
2015-May-03 19:33N 38°30' W 074°46'1111.4
2015-May-03 18:33N 38°39' W 074°55'1313.1
2015-May-03 17:34N 38°50' W 075°05'1312.7
2015-May-03 16:33N 39°02' W 075°10'1211.8
2015-May-03 15:33N 39°13' W 075°17'1010.3
2015-May-03 14:34N 39°21' W 075°26'10 9.5
2015-May-03 13:34N 39°28' W 075°34'9 9.3
2015-May-03 12:34N 39°37' W 075°35'1111.0
2015-May-03 11:34N 39°47' W 075°28'1010.0
2015-May-03 10:33N 39°51' W 075°16'0 0.1
2015-May-03 09:33N 39°51' W 075°16'0 0.0
2015-May-03 08:33N 39°51' W 075°16'0 0.0
2015-May-03 07:33N 39°51' W 075°16'0 0.0
2015-May-03 06:27N 39°51' W 075°16'0 0.0
2015-May-03 05:33N 39°51' W 075°16'0 0.0
2015-May-03 04:33N 39°51' W 075°16'0 0.0
2015-May-03 03:30N 39°51' W 075°16'0 0.0
2015-May-03 02:30N 39°51' W 075°16'0 0.0
2015-May-03 01:33N 39°51' W 075°16'0 0.0
2015-May-03 00:30N 39°51' W 075°16'0 0.0
2015-May-02 23:30N 39°51' W 075°16'0 0.0
2015-May-02 22:33N 39°51' W 075°16'0 0.0
2015-May-02 21:33N 39°51' W 075°16'0 0.0
2015-May-02 20:33N 39°51' W 075°16'0 0.0
2015-May-02 19:33N 39°51' W 075°16'0 0.0
2015-May-02 18:30N 39°51' W 075°16'0 0.0
2015-May-02 17:15N 39°51' W 075°16'0 0.0
2015-May-02 16:33N 39°51' W 075°16'0 0.0
2015-May-02 15:33N 39°51' W 075°16'0 0.0
2015-May-02 14:33N 39°51' W 075°16'0 0.0
2015-May-02 13:30N 39°51' W 075°16'0 0.1
2015-May-02 12:33N 39°51' W 075°16'6 5.9
2015-May-02 11:34N 39°49' W 075°23'1 1.5
2015-May-02 10:33N 39°48' W 075°25'0 0.0
2015-May-02 09:33N 39°48' W 075°25'0 0.0
2015-May-02 08:33N 39°48' W 075°25'0 0.0
2015-May-02 07:33N 39°48' W 075°25'0 0.0
2015-May-02 06:33N 39°48' W 075°25'0 0.1
2015-May-02 05:33N 39°48' W 075°25'0 0.1
2015-May-02 04:33N 39°48' W 075°25'0 0.0
2015-May-02 03:33N 39°48' W 075°25'0 0.0
2015-May-02 02:33N 39°48' W 075°25'0 0.0
2015-May-02 01:33N 39°48' W 075°25'0 0.0
2015-May-02 00:32N 39°48' W 075°25'0 0.1
2015-May-01 23:33N 39°48' W 075°25'0 0.1
2015-May-01 22:33N 39°48' W 075°25'0 0.0
2015-May-01 21:33N 39°48' W 075°25'0 0.0
2015-May-01 20:32N 39°48' W 075°25'0 0.0
2015-May-01 19:32N 39°48' W 075°25'0 0.0
2015-May-01 18:32N 39°48' W 075°25'0 0.0
2015-May-01 17:32N 39°48' W 075°25'0 0.1
2015-May-01 16:29N 39°48' W 075°25'0 0.0
2015-May-01 15:32N 39°48' W 075°25'0 0.0
2015-May-01 14:32N 39°48' W 075°25'0 0.0
2015-May-01 13:33N 39°48' W 075°25'0 0.1
2015-May-01 12:29N 39°48' W 075°25'1 0.9
2015-May-01 11:34N 39°48' W 075°26'1010.3
2015-May-01 10:34N 39°39' W 075°33'1010.5
2015-May-01 09:34N 39°29' W 075°34'1110.6
2015-May-01 08:34N 39°20' W 075°25'1110.6
2015-May-01 07:34N 39°12' W 075°17'1111.5
2015-May-01 06:34N 39°02' W 075°09'1111.3
2015-May-01 05:34N 38°52' W 075°04'9 8.7
2015-May-01 04:34N 38°45' W 074°57'15 7.2
2015-May-01 02:33N 38°36' W 074°43'2 1.3
2015-May-01 01:20N 38°37' W 074°43'2 1.2
2015-Apr-30 23:32N 38°39' W 074°43'1 1.1
2015-Apr-30 22:32N 38°40' W 074°42'1 1.2
2015-Apr-30 21:32N 38°41' W 074°41'1 1.2
2015-Apr-30 20:32N 38°41' W 074°40'2 1.1
2015-Apr-30 18:32N 38°42' W 074°37'3 0.7
2015-Apr-30 14:21N 38°41' W 074°34'23 3.9
2015-Apr-30 08:26N 38°59' W 074°16'2512.3
2015-Apr-30 06:24N 39°22' W 074°03'1212.1
2015-Apr-30 05:27N 39°32' W 073°57'1011.8
2015-Apr-30 04:33N 39°43' W 073°53'1212.0
2015-Apr-30 03:34N 39°54' W 073°51'1712.0
2015-Apr-30 02:09N 40°11' W 073°50'711.7
2015-Apr-30 01:33N 40°18' W 073°49'11 9.4
2015-Apr-30 00:21N 40°29' W 073°54'810.4
2015-Apr-29 23:33N 40°34' W 074°02'7 7.2
2015-Apr-29 22:33N 40°39' W 074°10'2 0.3
2015-Apr-29 17:10N 40°38' W 074°12'0 0.0
2015-Apr-29 15:28N 40°38' W 074°12'0 0.0
2015-Apr-29 14:04N 40°38' W 074°12'0 0.0
2015-Apr-29 13:28N 40°38' W 074°12'0 0.0
2015-Apr-29 12:10N 40°38' W 074°12'0 0.0
2015-Apr-29 10:28N 40°38' W 074°12'0 0.0
2015-Apr-28 21:25N 40°38' W 074°12'4 5.2
2015-Apr-28 20:33N 40°39' W 074°06'8 8.3
2015-Apr-28 19:33N 40°32' W 074°01'1010.3
2015-Apr-28 18:32N 40°27' W 073°49'6 0.8
2015-Apr-28 11:16N 40°28' W 073°41'62 9.2
2015-Apr-28 04:31N 39°28' W 073°19'  

Dump ship's entire track history